Data for 06/30/2017

Time Sea-Level Adjusted Pressure Absolute Pressure Temperature Relative Humidity Dew Point   
(mb) (inHg) (mb) (inHg) (C) (F) (%) (C) (F)
00:05 1025 30.27 854 25.22 9 48.1 74 4.5 40.2
00:10 1025 30.27 854 25.22 8.8 47.8 73 4.3 39.8
00:15 1025 30.27 854 25.22 8.9 48 73 4.3 39.8
00:20 1025 30.27 854 25.22 8.9 48 73 4.4 39.9
00:25 1025 30.27 854 25.22 8.7 47.7 74 4.4 39.9
00:30 1025 30.27 854 25.22 8.5 47.4 74 4.2 39.6
00:35 1025 30.27 854 25.22 8.5 47.3 74 4.2 39.6
00:40 1025 30.27 854 25.22 8.5 47.3 74 4.2 39.5
00:45 1025 30.27 854 25.22 8.5 47.4 73 4.1 39.3
00:50 1025 30.27 854 25.22 8.5 47.3 74 4.1 39.4
00:55 1025 30.27 854 25.22 8.5 47.3 73 4 39.1
01:00 1025 30.27 854 25.22 8.5 47.4 73 4.1 39.3
01:05 1025 30.27 854 25.22 8.4 47.2 74 4 39.3
01:10 1025 30.27 854 25.22 8.4 47.2 74 4 39.3
01:15 1025 30.27 854 25.22 8.5 47.3 74 4 39.3
01:20 1025 30.27 854 25.22 8.6 47.4 74 4.1 39.4
01:25 1025 30.27 854 25.22 8.6 47.4 73 4 39.3
01:30 1025 30.27 854 25.22 8.6 47.5 73 4.1 39.4
01:35 1025 30.27 854 25.22 8.7 47.7 73 4.1 39.3
01:40 1025 30.27 854 25.22 8.9 48.1 70 3.8 38.9
01:45 1025 30.27 854 25.22 9.1 48.4 70 3.9 39
01:50 1025 30.27 854 25.22 9 48.2 70 3.9 39
01:55 1025 30.27 854 25.22 8.8 47.9 72 4 39.3
02:00 1025 30.27 854 25.22 8.6 47.5 73 4 39.3
02:05 1025 30.27 854 25.22 8.5 47.3 73 3.9 38.9
02:10 1025 30.27 854 25.22 8.5 47.3 73 4 39.2
02:15 1025 30.27 854 25.22 8.2 46.8 76 4.2 39.5
02:20 1025 30.27 854 25.22 7.8 46.1 76 3.9 39
02:25 1025 30.27 854 25.22 7.9 46.3 76 3.9 39.1
02:30 1025 30.27 854 25.22 8 46.4 75 3.9 39.1
02:35 1025 30.27 854 25.22 7.8 46.1 75 3.7 38.7
02:40 1024 30.24 854 25.22 8.2 46.7 74 3.9 39
02:45 1024 30.24 854 25.22 8.2 46.8 74 3.8 38.9
02:50 1024 30.24 854 25.22 8.2 46.8 74 3.9 39
02:55 1025 30.27 854 25.22 8.1 46.6 74 3.9 39
03:00 1025 30.27 854 25.22 7.9 46.3 75 3.8 38.8
03:05 1025 30.27 854 25.22 7.9 46.3 75 3.8 38.8
03:10 1025 30.27 854 25.22 7.9 46.2 75 3.8 38.8
03:15 1025 30.27 854 25.22 7.7 45.8 77 3.9 38.9
03:20 1025 30.27 854 25.22 7.3 45.2 78 3.7 38.7
03:25 1025 30.27 854 25.22 7.2 45 78 3.7 38.6
03:30 1025 30.27 854 25.22 7.2 44.9 79 3.7 38.7
03:35 1025 30.27 854 25.22 7.2 44.9 78 3.7 38.6
03:40 1025 30.27 854 25.22 7.2 44.9 78 3.6 38.4
03:45 1025 30.27 854 25.22 7.5 45.6 76 3.5 38.4
03:50 1025 30.27 854 25.22 7.6 45.6 77 3.9 38.9
03:55 1025 30.27 854 25.22 7 44.7 78 3.5 38.3
04:00 1025 30.27 854 25.22 7.1 44.7 78 3.6 38.4
04:05 1025 30.27 854 25.22 7.2 44.9 78 3.6 38.5
04:10 1025 30.27 854 25.22 7.1 44.8 79 3.6 38.6
04:15 1025 30.27 854 25.22 7 44.6 79 3.6 38.5
04:20 1025 30.27 854 25.22 7 44.6 79 3.6 38.5
04:25 1025 30.27 854 25.22 7.1 44.7 79 3.7 38.6
04:30 1025 30.27 854 25.22 7.2 44.9 78 3.5 38.4
04:35 1025 30.27 854 25.22 7.4 45.3 76 3.5 38.3
04:40 1025 30.27 854 25.22 7.6 45.7 76 3.7 38.6
04:45 1025 30.27 854 25.22 7.4 45.3 77 3.7 38.7
04:50 1025 30.27 854 25.22 7.3 45.2 78 3.7 38.6
04:55 1025 30.27 854 25.22 7.1 44.9 79 3.7 38.7
05:00 1025 30.27 854 25.22 7 44.7 79 3.6 38.4
05:05 1025 30.27 854 25.22 7.1 44.7 78 3.6 38.5
05:10 1025 30.27 854 25.22 7 44.6 79 3.5 38.3
05:15 1025 30.27 854 25.22 7.1 44.8 78 3.5 38.3
05:20 1025 30.27 854 25.22 7.3 45.1 77 3.5 38.3
05:25 1025 30.27 854 25.22 7.5 45.5 76 3.6 38.5
05:30 1025 30.27 854 25.22 7.6 45.7 76 3.7 38.7
05:35 1025 30.27 854 25.22 7.8 46 75 3.6 38.5
05:40 1025 30.27 854 25.22 8.1 46.6 74 3.8 38.9
05:45 1025 30.27 854 25.22 8.3 46.9 73 3.8 38.9
05:50 1025 30.27 854 25.22 8.4 47.2 73 3.8 38.9
05:55 1025 30.27 854 25.22 8.7 47.6 73 4.1 39.4
06:00 1025 30.27 854 25.22 8.6 47.6 73 4.2 39.5
06:05 1025 30.27 854 25.22 8.5 47.3 74 4.2 39.6
06:10 1025 30.27 854 25.22 8.8 47.8 73 4.1 39.4
06:15 1025 30.27 854 25.22 9 48.1 73 4.4 39.9
06:20 1025 30.27 854 25.22 9.1 48.3 72 4.3 39.8
06:25 1025 30.27 854 25.22 9.4 48.8 70 4.3 39.7
06:30 1025 30.27 854 25.22 9.6 49.3 70 4.4 39.9
06:35 1025 30.27 854 25.22 10 50 67 4.3 39.7
06:40 1025 30.27 854 25.22 10.5 50.9 66 4.5 40
06:45 1025 30.27 854 25.22 10.7 51.3 66 4.7 40.5
06:50 1025 30.27 854 25.22 11 51.8 66 5 40.9
06:55 1025 30.27 854 25.22 11.4 52.4 65 5 41
07:00 1025 30.27 854 25.22 11.4 52.4 64 4.9 40.9
07:05 1025 30.27 854 25.22 11.7 53.1 62 4.8 40.6
07:10 1025 30.27 854 25.22 12 53.5 62 5 41
07:15 1025 30.27 854 25.22 12.4 54.4 60 4.9 40.9
07:20 1025 30.27 854 25.22 12.9 55.2 58 5 41
07:25 1025 30.27 854 25.22 13.7 56.6 57 5.3 41.5
07:30 1025 30.27 854 25.22 13.6 56.5 57 5.2 41.4
07:35 1025 30.27 854 25.22 14.5 58.1 54 5.4 41.7
07:40 1025 30.27 854 25.22 14.8 58.7 52 5.2 41.4
07:45 1025 30.27 854 25.22 14.6 58.3 52 5.1 41.1
07:50 1025 30.27 854 25.22 15 58.9 50 4.9 40.8
07:55 1025 30.27 854 25.22 15.5 59.9 50 5.2 41.4
08:00 1025 30.27 854 25.22 15.8 60.4 50 5.5 41.9
08:05 1025 30.27 854 25.22 15.6 60.1 50 5.2 41.4
08:10 1025 30.27 854 25.22 16.2 61.1 49 5.4 41.8
08:15 1025 30.27 854 25.22 16.5 61.7 47 5.2 41.4
08:20 1025 30.27 854 25.22 16.2 61.2 49 5.5 41.8
08:25 1025 30.27 854 25.22 16.2 61.1 48 5.4 41.7
08:30 1025 30.27 854 25.22 15.7 60.3 51 5.7 42.3
08:35 1025 30.27 854 25.22 15 59.1 51 5 41
08:40 1025 30.27 854 25.22 15 59 50 4.7 40.4
08:45 1025 30.27 854 25.22 15.8 60.5 48 4.9 40.7
08:50 1025 30.27 854 25.22 15.8 60.5 49 5.3 41.5
08:55 1025 30.27 854 25.22 16.3 61.3 46 4.8 40.6
09:00 1025 30.27 854 25.22 16.6 61.8 47 5.4 41.7
09:05 1025 30.27 854 25.22 15.7 60.2 48 4.9 40.8
09:10 1025 30.27 854 25.22 16.7 62 45 4.8 40.6
09:15 1025 30.27 854 25.22 17.5 63.6 42 4.6 40.3
09:20 1025 30.27 854 25.22 17 62.6 46 5.5 41.9
09:25 1024 30.24 854 25.22 17.3 63.1 43 4.6 40.4
09:30 1024 30.24 854 25.22 18 64.3 43 5.2 41.4
09:35 1024 30.24 854 25.22 17.6 63.6 43 4.9 40.9
09:40 1024 30.24 854 25.22 18.2 64.7 42 5 41
09:45 1024 30.24 854 25.22 17.9 64.2 42 4.8 40.7
09:50 1024 30.24 854 25.22 18.2 64.7 42 5.1 41.1
09:55 1024 30.24 854 25.22 18.7 65.6 41 5.4 41.7
10:00 1024 30.24 854 25.22 19.1 66.4 38 4.8 40.6
10:05 1024 30.24 854 25.22 19.4 66.8 38 4.7 40.5
10:10 1024 30.24 854 25.22 19.4 66.9 38 4.7 40.5
10:15 1024 30.24 853 25.19 19.3 66.7 39 5 41
10:20 1024 30.24 853 25.19 19.6 67.4 34 3.5 38.3
10:25 1024 30.24 853 25.19 19.8 67.6 37 5 41
10:30 1024 30.24 853 25.19 19 66.3 38 4.7 40.5
10:35 1024 30.24 853 25.19 20.1 68.1 36 4.5 40.1
10:40 1024 30.24 853 25.19 19.9 67.9 37 4.9 40.9
10:45 1024 30.24 853 25.19 20 68 35 4.1 39.4
10:50 1024 30.24 853 25.19 20.6 69.1 31 3 37.4
10:55 1024 30.24 853 25.19 20.4 68.7 33 3.7 38.6
11:00 1024 30.24 853 25.19 20.5 68.9 31 3.1 37.5
11:05 1024 30.24 853 25.19 20.5 68.9 33 3.7 38.7
11:10 1024 30.24 853 25.19 20.2 68.4 33 3.7 38.7
11:15 1024 30.24 853 25.19 20.3 68.5 28 1.3 34.3
11:20 1024 30.24 853 25.19 20.8 69.5 28 2 35.6
11:25 1024 30.24 853 25.19 21.1 69.9 31 3.5 38.3
11:30 1024 30.24 853 25.19 21.3 70.3 28 2.4 36.3
11:35 1024 30.24 853 25.19 21.5 70.7 26 1.6 34.9
11:40 1024 30.24 853 25.19 21 69.7 29 2.6 36.8
11:45 1024 30.24 853 25.19 21.1 70 29 2.7 36.9
11:50 1024 30.24 853 25.19 21.6 70.9 28 2.7 36.8
11:55 1024 30.24 853 25.19 21.7 71.1 28 2.8 37.1
12:00 1023 30.21 853 25.19 21.8 71.2 30 3.5 38.4
12:05 1023 30.21 853 25.19 21.4 70.5 32 4 39.3
12:10 1023 30.21 853 25.19 21.6 70.9 30 3.4 38.2
12:15 1023 30.21 853 25.19 21.7 71.1 28 2.5 36.6
12:20 1023 30.21 853 25.19 21.9 71.3 29 3.2 37.8
12:25 1023 30.21 853 25.19 21.9 71.4 27 2.5 36.5
12:30 1023 30.21 853 25.19 22.1 71.8 26 2 35.5
12:35 1023 30.21 852 25.16 22.1 71.7 24 0.7 33.3
12:40 1023 30.21 852 25.16 22 71.6 24 0.7 33.3
12:45 1023 30.21 852 25.16 22.1 71.7 23 0.4 32.7
12:50 1023 30.21 852 25.16 22 71.7 26 2.1 35.7
12:55 1023 30.21 852 25.16 22.3 72.1 28 2.9 37.2
13:00 1023 30.21 852 25.16 22.2 72 26 1.8 35.3
13:05 1023 30.21 852 25.16 22.5 72.5 26 2.2 36
13:10 1023 30.21 852 25.16 22.8 73 28 3.4 38.1
13:15 1023 30.21 852 25.16 22.6 72.6 27 2.7 36.8
13:20 1023 30.21 852 25.16 22.3 72.1 26 2.3 36.2
13:25 1023 30.21 852 25.16 22.2 72 28 2.9 37.2
13:30 1023 30.21 852 25.16 22.4 72.3 29 3.5 38.2
13:35 1023 30.21 852 25.16 22.2 72 28 3.1 37.6
13:40 1023 30.21 852 25.16 22 71.6 27 2.2 36
13:45 1023 30.21 852 25.16 22.7 72.8 26 2.2 36
13:50 1023 30.21 852 25.16 23 73.3 25 2.1 35.7
13:55 1023 30.21 852 25.16 22.6 72.7 27 2.8 37
14:00 1023 30.21 852 25.16 22.6 72.7 26 2.5 36.5
14:05 1023 30.21 852 25.16 21.9 71.4 28 2.6 36.7
14:10 1022 30.18 852 25.16 21.8 71.2 27 2.4 36.3
14:15 1022 30.18 852 25.16 22 71.5 28 2.8 37.1
14:20 1022 30.18 852 25.16 23.4 74.2 26 3 37.4
14:25 1022 30.18 852 25.16 22.3 72.2 27 2.9 37.1
14:30 1022 30.18 852 25.16 22.8 73.1 27 2.8 37.1
14:35 1022 30.18 852 25.16 22.4 72.4 28 3.2 37.8
14:40 1022 30.18 852 25.16 22.5 72.5 26 2 35.6
14:45 1022 30.18 851 25.13 23.8 74.9 25 2.9 37.2
14:50 1022 30.18 851 25.13 24.6 76.4 24 3.2 37.7
14:55 1022 30.18 851 25.13 24.2 75.6 26 3.9 39.1
15:00 1022 30.18 851 25.13 22.8 73 28 3.5 38.4
15:05 1022 30.18 851 25.13 22.8 73 27 3.3 37.9
15:10 1022 30.18 851 25.13 23.6 74.4 26 2.9 37.3
15:15 1022 30.18 851 25.13 24 75.2 25 3 37.4
15:20 1022 30.18 851 25.13 23.7 74.6 25 2.5 36.4
15:25 1022 30.18 851 25.13 23.7 74.6 26 3.1 37.6
15:30 1022 30.18 851 25.13 24 75.3 24 2.7 36.8
15:35 1022 30.18 851 25.13 23.9 75 26 3.2 37.8
15:40 1022 30.18 851 25.13 23.3 74 26 2.7 36.9
15:45 1022 30.18 851 25.13 23 73.3 25 2.2 36
15:50 1022 30.18 851 25.13 22.7 72.9 25 2 35.7
15:55 1022 30.18 851 25.13 22.4 72.3 26 1.9 35.4
16:00 1022 30.18 851 25.13 22.7 72.8 26 2.4 36.3
16:05 1022 30.18 851 25.13 23.4 74 25 2.6 36.6
16:10 1022 30.18 851 25.13 22.9 73.2 26 2.4 36.3
16:15 1022 30.18 851 25.13 22.7 72.9 26 2.3 36.2
16:20 1022 30.18 851 25.13 23.1 73.6 25 2.4 36.3
16:25 1022 30.18 851 25.13 23.9 74.9 24 2.4 36.2
16:30 1022 30.18 851 25.13 24.6 76.2 23 2.1 35.8
16:35 1022 30.18 851 25.13 24.7 76.5 24 2.8 37
16:40 1022 30.18 851 25.13 24 75.3 25 3 37.4
16:45 1021 30.15 851 25.13 24 75.2 25 3 37.4
16:50 1021 30.15 851 25.13 23.9 75 24 2.5 36.5
16:55 1021 30.15 851 25.13 23.2 73.8 25 2.4 36.3
17:00 1021 30.15 851 25.13 23.5 74.4 25 2.6 36.7
17:05 1021 30.15 850 25.1 23.6 74.4 25 2.5 36.5
17:10 1021 30.15 850 25.1 23.4 74.1 24 1.9 35.5
17:15 1021 30.15 850 25.1 23.6 74.5 24 2.3 36.2
17:20 1021 30.15 850 25.1 23.1 73.7 25 2.1 35.8
17:25 1021 30.15 850 25.1 23.5 74.3 24 2 35.5
17:30 1021 30.15 850 25.1 24.2 75.6 24 2.8 37
17:35 1021 30.15 850 25.1 24 75.3 24 2.5 36.4
17:40 1021 30.15 850 25.1 23.2 73.7 25 2 35.7
17:45 1021 30.15 850 25.1 23.1 73.6 25 2 35.5
17:50 1021 30.15 850 25.1 23.6 74.5 24 2.1 35.8
17:55 1021 30.15 850 25.1 23.6 74.4 25 2.4 36.2
18:00 1021 30.15 850 25.1 23.4 74.1 24 2 35.6
18:05 1021 30.15 850 25.1 23.2 73.8 25 2.2 36
18:10 1021 30.15 850 25.1 23.1 73.6 26 2.7 36.8
18:15 1021 30.15 850 25.1 23.3 73.9 25 2.5 36.4
18:20 1021 30.15 850 25.1 23.3 73.9 25 2.3 36.2
18:25 1021 30.15 850 25.1 22.9 73.2 26 2.7 36.9
18:30 1021 30.15 850 25.1 22.8 73 29 4 39.2
18:35 1021 30.15 850 25.1 22.4 72.3 29 3.6 38.4
18:40 1021 30.15 850 25.1 22.2 71.9 29 3.3 37.9
18:45 1021 30.15 850 25.1 22.2 71.9 29 3.3 38
18:50 1021 30.15 850 25.1 22.1 71.8 31 4.3 39.8
18:55 1021 30.15 850 25.1 21.9 71.5 30 3.6 38.4
19:00 1021 30.15 850 25.1 21.9 71.4 29 3.2 37.8
19:05 1021 30.15 850 25.1 22 71.6 29 3.4 38.2
19:10 1020 30.12 850 25.1 21.8 71.2 31 4.3 39.7
19:15 1020 30.12 850 25.1 21.7 71 30 3.4 38.1
19:20 1020 30.12 850 25.1 21.7 71 30 3.6 38.5
19:25 1020 30.12 850 25.1 21.6 70.8 31 3.9 39
19:30 1020 30.12 850 25.1 21.4 70.6 28 2.6 36.6
19:35 1020 30.12 850 25.1 21.5 70.7 29 3 37.3
19:40 1020 30.12 850 25.1 21.4 70.6 29 3 37.5
19:45 1020 30.12 850 25.1 21.3 70.3 30 3.3 38
19:50 1020 30.12 850 25.1 21.2 70.2 31 3.5 38.3
19:55 1020 30.12 850 25.1 21 69.8 32 4 39.3
20:00 1020 30.12 849 25.07 20.6 69 39 6.4 43.6
20:05 1020 30.12 849 25.07 19.9 67.9 41 6.3 43.3
20:10 1020 30.12 849 25.07 19.5 67.2 42 6.3 43.3
20:15 1020 30.12 849 25.07 19.3 66.7 41 5.9 42.6
20:20 1020 30.12 850 25.1 19 66.3 41 5.6 42.1
20:25 1020 30.12 850 25.1 18.7 65.7 42 5.8 42.5
20:30 1020 30.12 850 25.1 18.4 65 43 5.8 42.4
20:35 1020 30.12 850 25.1 17.8 64.1 46 6.1 43
20:40 1020 30.12 850 25.1 17.5 63.4 47 6.2 43.2
20:45 1020 30.12 850 25.1 17.1 62.8 49 6.5 43.8
20:50 1020 30.12 850 25.1 16.7 62 51 6.7 44
20:55 1020 30.12 850 25.1 16.2 61.2 52 6.4 43.5
21:00 1021 30.15 850 25.1 16.1 61.1 51 6.1 43
21:05 1021 30.15 850 25.1 16.1 60.9 52 6.2 43.2
21:10 1021 30.15 850 25.1 15.9 60.5 53 6.3 43.3
21:15 1021 30.15 850 25.1 15.7 60.2 52 5.9 42.7
21:20 1021 30.15 850 25.1 15.6 60 52 5.8 42.5
21:25 1021 30.15 850 25.1 15.6 60 52 5.8 42.4
21:30 1021 30.15 850 25.1 15.4 59.7 52 5.6 42.1
21:35 1021 30.15 850 25.1 15.4 59.7 51 5.4 41.7
21:40 1021 30.15 850 25.1 15.4 59.7 51 5.5 41.9
21:45 1021 30.15 850 25.1 15.3 59.5 51 5.4 41.7
21:50 1021 30.15 850 25.1 15.3 59.5 49 4.8 40.7
21:55 1021 30.15 850 25.1 15.6 60 50 5.4 41.6
22:00 1021 30.15 850 25.1 15.2 59.3 52 5.4 41.8
22:05 1021 30.15 850 25.1 14.9 58.9 52 5.3 41.5
22:10 1021 30.15 850 25.1 15 59 50 4.7 40.4
22:15 1021 30.15 850 25.1 15.3 59.6 50 5.1 41.2
22:20 1021 30.15 850 25.1 14.9 58.9 53 5.5 41.8
22:25 1021 30.15 850 25.1 14.5 58 54 5.4 41.8
22:30 1021 30.15 850 25.1 14.2 57.5 55 5.3 41.5
22:35 1021 30.15 850 25.1 14.2 57.6 54 5.1 41.2
22:40 1021 30.15 850 25.1 14.2 57.6 54 5.1 41.2
22:45 1021 30.15 850 25.1 14.1 57.4 54 5.1 41.1
22:50 1021 30.15 850 25.1 14.2 57.6 52 4.6 40.3
22:55 1021 30.15 850 25.1 14.4 57.9 51 4.5 40.1
23:00 1021 30.15 850 25.1 14.5 58 50 4.4 39.9
23:05 1021 30.15 850 25.1 14.5 58.1 53 5 41
23:10 1021 30.15 850 25.1 14.2 57.5 54 5 41
23:15 1021 30.15 850 25.1 14.1 57.3 53 4.8 40.7
23:20 1021 30.15 850 25.1 14.1 57.4 54 5 40.9
23:25 1021 30.15 850 25.1 14.3 57.7 51 4.5 40
23:30 1021 30.15 850 25.1 14.7 58.4 49 4.2 39.6
23:35 1021 30.15 850 25.1 15 59.1 50 4.8 40.7
23:40 1021 30.15 850 25.1 14.9 58.8 51 4.9 40.8
23:45 1021 30.15 850 25.1 14.8 58.6 51 4.8 40.7
23:50 1021 30.15 850 25.1 14.7 58.5 51 4.7 40.4
23:55 1021 30.15 850 25.1 14.9 58.8 51 5 41.1
24:00 1021 30.15 850 25.1 14.5 58.1 54 5.4 41.7